createdAt,value
2022-09-11T00:02:06.301Z,14.27
2022-09-11T00:05:10.386Z,14.93
2022-09-11T00:08:14.144Z,13.88
2022-09-11T00:11:20.843Z,15.25
2022-09-11T00:14:33.229Z,15.15
2022-09-11T00:17:35.964Z,14.57
2022-09-11T00:20:38.571Z,15.27
2022-09-11T00:23:41.283Z,15.70
2022-09-11T00:26:47.509Z,15.27
2022-09-11T00:29:50.581Z,15.95
2022-09-11T00:32:53.321Z,16.38
2022-09-11T00:35:58.393Z,15.60
2022-09-11T00:39:04.544Z,17.48
2022-09-11T00:42:11.564Z,18.02
2022-09-11T00:45:50.231Z,16.15
2022-09-11T00:48:53.599Z,15.60
2022-09-11T00:51:59.013Z,15.77
2022-09-11T00:55:04.903Z,17.10
2022-09-11T00:58:11.811Z,15.43
2022-09-11T01:01:15.512Z,15.18
2022-09-11T01:04:18.232Z,15.65
2022-09-11T01:07:25.216Z,14.73
2022-09-11T01:10:35.205Z,15.43
2022-09-11T01:13:44.925Z,13.73
2022-09-11T01:16:53.749Z,15.75
2022-09-11T01:20:14.357Z,14.02
2022-09-11T01:23:37.956Z,13.40
2022-09-11T01:26:58.496Z,14.07
2022-09-11T01:30:05.449Z,13.30
2022-09-11T01:33:13.749Z,13.40
2022-09-11T01:36:23.197Z,13.70
2022-09-11T01:39:38.521Z,14.35
2022-09-11T01:42:44.224Z,13.32
2022-09-11T01:45:50.498Z,16.90
2022-09-11T01:48:56.548Z,14.45
2022-09-11T01:52:01.578Z,16.08
2022-09-11T01:55:17.568Z,13.48
2022-09-11T01:59:11.738Z,14.18
2022-09-11T02:02:23.005Z,14.63
2022-09-11T02:05:28.889Z,15.15
2022-09-11T02:08:44.110Z,14.73
2022-09-11T02:11:48.188Z,15.63
2022-09-11T02:14:53.096Z,14.23
2022-09-11T02:18:01.336Z,14.15
2022-09-11T02:21:05.000Z,13.88
2022-09-11T02:24:09.325Z,13.73
2022-09-11T02:27:14.278Z,15.52
2022-09-11T02:30:17.498Z,14.45
2022-09-11T02:33:29.290Z,14.07
2022-09-11T02:36:39.416Z,16.00
2022-09-11T02:39:58.359Z,14.32
2022-09-11T02:43:23.958Z,14.48
2022-09-11T02:46:34.532Z,14.40
2022-09-11T02:49:44.797Z,14.77
2022-09-11T02:52:49.310Z,13.35
2022-09-11T02:55:57.555Z,13.13
2022-09-11T02:59:01.700Z,13.20
2022-09-11T03:02:10.279Z,15.38
2022-09-11T03:05:14.498Z,12.98
2022-09-11T03:08:17.734Z,12.27
2022-09-11T03:11:20.859Z,11.85
2022-09-11T03:14:25.336Z,12.77
2022-09-11T03:17:27.956Z,12.05
2022-09-11T03:20:31.824Z,11.57
2022-09-11T03:23:34.525Z,11.80
2022-09-11T03:26:37.553Z,11.73
2022-09-11T03:29:40.761Z,11.48
2022-09-11T03:32:43.369Z,11.82
2022-09-11T03:35:49.869Z,10.93
2022-09-11T03:38:54.948Z,11.23
2022-09-11T03:41:58.261Z,11.98
2022-09-11T03:45:01.016Z,12.05
2022-09-11T03:48:03.676Z,11.85
2022-09-11T03:51:08.838Z,10.85
2022-09-11T03:54:11.607Z,11.35
2022-09-11T03:57:14.408Z,10.75
2022-09-11T04:00:17.216Z,11.18
2022-09-11T04:03:31.355Z,10.85
2022-09-11T04:06:35.544Z,11.57
2022-09-11T04:09:40.191Z,10.05
2022-09-11T04:12:44.116Z,10.88
2022-09-11T04:15:46.751Z,11.02
2022-09-11T04:18:51.194Z,9.88
2022-09-11T04:21:56.511Z,10.20
2022-09-11T04:25:00.227Z,9.45
2022-09-11T04:28:02.998Z,9.52
2022-09-11T04:31:05.759Z,9.98
2022-09-11T04:34:09.961Z,9.00
2022-09-11T04:37:16.483Z,11.18
2022-09-11T04:40:19.211Z,9.63
2022-09-11T04:43:22.991Z,8.88
2022-09-11T04:46:25.848Z,9.05
2022-09-11T04:49:28.490Z,9.13
2022-09-11T04:52:34.126Z,9.63
2022-09-11T04:55:36.736Z,9.23
2022-09-11T04:58:39.458Z,9.48
2022-09-11T05:01:44.079Z,8.50
2022-09-11T05:04:46.856Z,9.40
2022-09-11T05:07:51.340Z,9.27
2022-09-11T05:10:55.010Z,8.80
2022-09-11T05:14:00.008Z,10.15
2022-09-11T05:17:05.451Z,8.38
2022-09-11T05:20:12.199Z,8.60
2022-09-11T05:23:16.544Z,8.35
2022-09-11T05:26:20.178Z,9.20
2022-09-11T05:29:23.104Z,8.48
2022-09-11T05:32:33.815Z,8.70
2022-09-11T05:35:38.026Z,8.27
2022-09-11T05:38:42.834Z,9.23
2022-09-11T05:41:45.799Z,9.43
2022-09-11T05:44:49.133Z,9.55
2022-09-11T05:47:55.825Z,9.00
2022-09-11T05:51:00.225Z,9.73
2022-09-11T05:54:04.668Z,8.88
2022-09-11T05:57:09.957Z,9.73
2022-09-11T06:00:14.846Z,9.95
2022-09-11T06:03:27.150Z,9.10
2022-09-11T06:06:30.551Z,8.73
2022-09-11T06:09:34.690Z,8.15
2022-09-11T06:12:37.639Z,8.70
2022-09-11T06:15:46.838Z,9.40
2022-09-11T06:18:50.962Z,8.75
2022-09-11T06:21:56.311Z,8.13
2022-09-11T06:25:17.345Z,8.27
2022-09-11T06:28:22.328Z,7.93
2022-09-11T06:31:29.843Z,7.68
2022-09-11T06:34:32.491Z,7.97
2022-09-11T06:37:39.743Z,7.30
2022-09-11T06:40:45.552Z,7.28
2022-09-11T06:43:49.280Z,6.25
2022-09-11T06:46:52.949Z,7.50
2022-09-11T06:49:56.829Z,7.43
2022-09-11T06:53:07.671Z,7.63
2022-09-11T06:56:15.132Z,6.93
2022-09-11T06:59:19.309Z,5.93
2022-09-11T07:02:22.781Z,6.07
2022-09-11T07:05:27.495Z,6.80
2022-09-11T07:08:30.769Z,5.65
2022-09-11T07:11:36.307Z,5.78
2022-09-11T07:14:41.274Z,5.07
2022-09-11T07:17:51.363Z,4.38
2022-09-11T07:20:55.850Z,3.97
2022-09-11T07:23:59.456Z,3.80
2022-09-11T07:27:08.576Z,4.32
2022-09-11T07:30:12.941Z,3.42
2022-09-11T07:33:19.342Z,3.70
2022-09-11T07:36:22.915Z,3.15
2022-09-11T07:39:27.917Z,3.55
2022-09-11T07:42:42.999Z,2.95
2022-09-11T07:45:47.132Z,2.83
2022-09-11T07:48:50.753Z,2.40
2022-09-11T07:51:54.222Z,2.15
2022-09-11T07:55:04.864Z,2.17
2022-09-11T07:58:12.393Z,2.03
2022-09-11T08:01:16.109Z,2.25
2022-09-11T08:04:18.972Z,2.08
2022-09-11T08:07:23.072Z,1.92
2022-09-11T08:10:28.050Z,1.33
2022-09-11T08:13:34.302Z,2.15
2022-09-11T08:16:37.131Z,1.90
2022-09-11T08:19:40.656Z,1.67
2022-09-11T08:22:43.340Z,1.67
2022-09-11T08:25:46.035Z,1.80
2022-09-11T08:28:52.736Z,1.63
2022-09-11T08:32:00.330Z,2.10
2022-09-11T08:35:05.320Z,1.65
2022-09-11T08:38:07.916Z,1.33
2022-09-11T08:41:16.984Z,1.70
2022-09-11T08:44:25.960Z,1.45
2022-09-11T08:47:41.385Z,1.90
2022-09-11T08:50:45.514Z,1.20
2022-09-11T08:53:51.418Z,1.50
2022-09-11T08:56:58.501Z,1.65
2022-09-11T09:00:17.963Z,1.50
2022-09-11T09:03:40.862Z,1.60
2022-09-11T09:07:01.102Z,1.35
2022-09-11T09:10:07.124Z,1.20
2022-09-11T09:13:17.673Z,1.30
2022-09-11T09:16:26.223Z,1.40
2022-09-11T09:19:45.251Z,1.33
2022-09-11T09:23:02.380Z,1.20
2022-09-11T09:26:10.949Z,0.95
2022-09-11T09:29:17.812Z,1.50
2022-09-11T09:32:22.999Z,1.48
2022-09-11T09:35:30.483Z,1.15
2022-09-11T09:38:33.863Z,1.52
2022-09-11T09:41:57.713Z,1.20
2022-09-11T09:45:08.437Z,1.30
2022-09-11T09:48:11.506Z,1.30
2022-09-11T09:51:15.640Z,1.40
2022-09-11T09:54:20.780Z,1.38
2022-09-11T09:57:25.059Z,1.02
2022-09-11T10:00:27.916Z,1.42
2022-09-11T10:03:31.032Z,1.10
2022-09-11T10:06:34.976Z,1.20
2022-09-11T10:09:38.315Z,1.10
2022-09-11T10:12:45.799Z,1.02
2022-09-11T10:15:50.059Z,1.20
2022-09-11T10:18:53.452Z,1.20
2022-09-11T10:22:14.211Z,1.30
2022-09-11T10:25:17.727Z,0.95
2022-09-11T10:28:22.535Z,0.90
2022-09-11T10:31:25.484Z,0.95
2022-09-11T10:34:29.220Z,0.95
2022-09-11T10:37:34.188Z,0.85
2022-09-11T10:40:38.859Z,1.08
2022-09-11T10:43:44.459Z,0.90
2022-09-11T10:46:47.068Z,0.95
2022-09-11T10:49:49.761Z,0.80
2022-09-11T10:53:08.387Z,0.85
2022-09-11T10:56:11.985Z,1.10
2022-09-11T10:59:20.468Z,0.85
2022-09-11T11:02:28.642Z,0.80
2022-09-11T11:05:33.390Z,0.75
2022-09-11T11:08:46.808Z,0.77
2022-09-11T11:11:56.671Z,0.70
2022-09-11T11:15:18.470Z,0.70
2022-09-11T11:18:26.930Z,0.80
2022-09-11T11:21:38.584Z,0.77
2022-09-11T11:24:47.186Z,0.77
2022-09-11T11:27:55.624Z,1.02
2022-09-11T11:31:03.353Z,0.88
2022-09-11T11:34:14.292Z,0.90
2022-09-11T11:37:18.821Z,0.60
2022-09-11T11:40:24.894Z,1.02
2022-09-11T11:43:29.677Z,0.88
2022-09-11T11:46:35.441Z,0.70
2022-09-11T11:49:50.210Z,1.00
2022-09-11T11:52:56.987Z,0.90
2022-09-11T11:56:04.474Z,0.98
2022-09-11T11:59:13.730Z,0.90
2022-09-11T12:02:19.608Z,0.88
2022-09-11T12:05:25.328Z,0.70
2022-09-11T12:08:28.253Z,0.70
2022-09-11T12:11:33.445Z,0.60
2022-09-11T12:14:43.656Z,0.70
2022-09-11T12:18:02.797Z,0.88
2022-09-11T12:21:23.913Z,0.90
2022-09-11T12:24:47.692Z,0.93
2022-09-11T12:28:10.162Z,0.70
2022-09-11T12:31:13.484Z,0.60
2022-09-11T12:34:20.047Z,0.60
2022-09-11T12:37:26.744Z,0.60
2022-09-11T12:40:35.749Z,0.60
2022-09-11T12:43:49.965Z,0.63
2022-09-11T12:47:17.282Z,0.60
2022-09-11T12:50:22.255Z,0.57
2022-09-11T12:53:27.081Z,0.88
2022-09-11T12:56:41.201Z,0.85
2022-09-11T13:03:20.089Z,0.70
2022-09-11T13:06:28.453Z,0.57
2022-09-11T13:09:49.867Z,0.70
2022-09-11T13:12:53.649Z,0.70
2022-09-11T13:16:04.490Z,1.38
2022-09-11T13:19:25.112Z,0.50
2022-09-11T13:22:42.388Z,1.25
2022-09-11T13:26:18.841Z,0.90
2022-09-11T13:29:22.373Z,0.70
2022-09-11T13:32:32.138Z,0.60
2022-09-11T13:35:35.759Z,0.80
2022-09-11T13:38:55.671Z,0.90
2022-09-11T13:42:05.295Z,0.80
2022-09-11T13:45:13.857Z,1.00
2022-09-11T13:48:23.014Z,1.10
2022-09-11T13:51:48.299Z,0.88
2022-09-11T13:54:52.907Z,0.93
2022-09-11T13:57:59.861Z,0.90
2022-09-11T14:01:12.353Z,0.95
2022-09-11T14:04:18.169Z,0.85
2022-09-11T14:07:24.637Z,0.80
2022-09-11T14:10:31.096Z,0.85
2022-09-11T14:13:48.391Z,0.80
2022-09-11T14:17:01.556Z,0.65
2022-09-11T14:20:30.330Z,1.08
2022-09-11T14:27:27.081Z,0.70
2022-09-11T14:30:37.119Z,0.90
2022-09-11T14:33:39.813Z,0.75
2022-09-11T14:36:45.003Z,0.77
2022-09-11T14:39:49.019Z,0.80
2022-09-11T14:42:51.430Z,0.88
2022-09-11T14:45:54.574Z,0.60
2022-09-11T14:48:57.036Z,1.05
2022-09-11T14:52:01.433Z,0.70
2022-09-11T14:55:04.135Z,0.80
2022-09-11T14:58:06.994Z,0.70
2022-09-11T15:01:10.595Z,0.85
2022-09-11T15:04:16.694Z,0.68
2022-09-11T15:07:22.318Z,0.85
2022-09-11T15:10:25.808Z,0.98
2022-09-11T15:13:28.357Z,0.70
2022-09-11T15:16:30.850Z,0.77
2022-09-11T15:19:34.395Z,0.70
2022-09-11T15:22:38.364Z,0.77
2022-09-11T15:25:40.847Z,0.60
2022-09-11T15:28:43.350Z,0.80
2022-09-11T15:31:46.673Z,0.70
2022-09-11T15:34:49.091Z,0.77
2022-09-11T15:37:54.078Z,0.90
2022-09-11T15:40:57.994Z,0.80
2022-09-11T15:44:00.758Z,0.85
2022-09-11T15:47:04.013Z,0.95
2022-09-11T15:50:06.997Z,0.80
2022-09-11T15:53:10.768Z,0.82
2022-09-11T15:56:15.128Z,0.88
2022-09-11T15:59:17.553Z,0.70
2022-09-11T16:02:21.520Z,0.80
2022-09-11T16:05:24.073Z,0.88
2022-09-11T16:08:28.869Z,0.70
2022-09-11T16:11:32.704Z,0.88
2022-09-11T16:14:36.536Z,0.85
2022-09-11T16:17:38.943Z,0.80
2022-09-11T16:20:41.482Z,0.77
2022-09-11T16:23:49.836Z,1.35
2022-09-11T16:26:55.715Z,0.80
2022-09-11T16:33:22.815Z,0.70
2022-09-11T16:36:25.245Z,0.65
2022-09-11T16:39:29.016Z,1.20
2022-09-11T16:42:31.664Z,0.68
2022-09-11T16:45:34.728Z,0.82
2022-09-11T16:48:38.078Z,0.70
2022-09-11T16:51:40.509Z,0.63
2022-09-11T16:54:48.775Z,0.65
2022-09-11T16:57:51.771Z,0.80
2022-09-11T17:00:54.441Z,0.80
2022-09-11T17:03:57.749Z,0.60
2022-09-11T17:07:00.907Z,0.75
2022-09-11T17:10:05.068Z,0.70
2022-09-11T17:13:08.007Z,0.80
2022-09-11T17:16:16.326Z,0.50
2022-09-11T17:19:19.473Z,0.70
2022-09-11T17:22:22.018Z,0.70
2022-09-11T17:25:25.919Z,0.80
2022-09-11T17:28:28.315Z,0.60
2022-09-11T17:31:31.272Z,0.80
2022-09-11T17:34:33.665Z,0.63
2022-09-11T17:37:36.554Z,0.60
2022-09-11T17:40:41.405Z,0.60
2022-09-11T17:43:43.911Z,0.75
2022-09-11T17:46:46.348Z,0.60
2022-09-11T17:49:50.093Z,0.85
2022-09-11T17:52:54.023Z,1.13
2022-09-11T17:56:01.998Z,0.85
2022-09-11T17:59:04.492Z,0.80
2022-09-11T18:02:07.200Z,1.48
2022-09-11T18:05:09.985Z,0.82
2022-09-11T18:08:12.631Z,0.95
2022-09-11T18:11:16.373Z,1.00
2022-09-11T18:14:19.806Z,0.77
2022-09-11T18:17:22.507Z,0.70
2022-09-11T18:20:24.981Z,0.60
2022-09-11T18:23:29.650Z,0.60
2022-09-11T18:26:36.530Z,0.75
2022-09-11T18:29:39.927Z,0.90
2022-09-11T18:32:42.479Z,0.75
2022-09-11T18:35:46.473Z,0.77
2022-09-11T18:38:50.477Z,1.00
2022-09-11T18:41:54.220Z,0.77
2022-09-11T18:44:56.669Z,0.70
2022-09-11T18:48:00.111Z,0.82
2022-09-11T18:51:06.013Z,0.55
2022-09-11T18:54:12.163Z,0.75
2022-09-11T18:57:15.905Z,0.90
2022-09-11T19:00:46.954Z,0.90
2022-09-11T19:03:50.227Z,0.70
2022-09-11T19:06:52.599Z,0.90
2022-09-11T19:09:54.989Z,0.70
2022-09-11T19:13:00.247Z,0.82
2022-09-11T19:16:04.091Z,0.90
2022-09-11T19:19:07.220Z,0.88
2022-09-11T19:22:09.695Z,0.90
2022-09-11T19:25:12.135Z,0.90
2022-09-11T19:28:16.115Z,0.85
2022-09-11T19:31:24.433Z,0.63
2022-09-11T19:34:26.925Z,0.80
2022-09-11T19:37:29.383Z,0.70
2022-09-11T19:40:32.040Z,0.60
2022-09-11T19:43:36.860Z,0.70
2022-09-11T19:46:39.517Z,0.75
2022-09-11T19:49:42.001Z,0.90
2022-09-11T19:52:44.516Z,0.80
2022-09-11T19:55:46.895Z,0.80
2022-09-11T19:58:51.318Z,0.73
2022-09-11T20:01:53.757Z,1.00
2022-09-11T20:04:56.261Z,0.95
2022-09-11T20:08:00.314Z,0.82
2022-09-11T20:11:04.411Z,0.98
2022-09-11T20:14:08.321Z,1.02
2022-09-11T20:17:10.953Z,1.02
2022-09-11T20:20:41.201Z,0.68
2022-09-11T20:23:47.800Z,0.90
2022-09-11T20:26:50.261Z,0.77
2022-09-11T20:29:54.753Z,0.80
2022-09-11T20:32:57.185Z,1.08
2022-09-11T20:36:00.478Z,0.80
2022-09-11T20:39:03.039Z,0.73
2022-09-11T20:42:05.524Z,0.98
2022-09-11T20:45:09.907Z,0.88
2022-09-11T20:48:12.380Z,0.88
2022-09-11T20:51:14.820Z,2.10
2022-09-11T20:54:19.775Z,0.95
2022-09-11T20:57:22.201Z,1.00
2022-09-11T21:00:28.126Z,1.00
2022-09-11T21:03:30.918Z,0.80
2022-09-11T21:06:34.250Z,0.80
2022-09-11T21:09:36.731Z,1.25
2022-09-11T21:12:39.157Z,0.82
2022-09-11T21:15:44.189Z,0.95
2022-09-11T21:18:47.317Z,1.08
2022-09-11T21:21:49.686Z,0.82
2022-09-11T21:24:52.115Z,1.17
2022-09-11T21:27:54.647Z,1.02
2022-09-11T21:30:59.529Z,1.00
2022-09-11T21:34:03.009Z,0.65
2022-09-11T21:37:05.563Z,1.10
2022-09-11T21:40:08.750Z,1.02
2022-09-11T21:43:11.571Z,0.90
2022-09-11T21:46:15.451Z,0.73
2022-09-11T21:49:17.974Z,1.08
2022-09-11T21:52:20.355Z,1.10
2022-09-11T21:55:22.964Z,1.00
2022-09-11T21:58:25.733Z,0.90
2022-09-11T22:01:31.562Z,0.68
2022-09-11T22:05:03.958Z,1.05
2022-09-11T22:08:07.207Z,0.60
2022-09-11T22:11:10.271Z,0.77
2022-09-11T22:14:13.474Z,0.63
2022-09-11T22:17:17.303Z,0.80
2022-09-11T22:20:19.926Z,0.70
2022-09-11T22:23:22.673Z,0.73
2022-09-11T22:26:25.127Z,0.90
2022-09-11T22:29:27.515Z,0.80
2022-09-11T22:32:33.522Z,0.90
2022-09-11T22:35:35.996Z,0.90
2022-09-11T22:38:38.493Z,0.70
2022-09-11T22:41:43.718Z,0.73
2022-09-11T22:45:14.711Z,0.80
2022-09-11T22:48:18.570Z,0.63
2022-09-11T22:51:20.956Z,0.60
2022-09-11T22:54:23.327Z,0.75
2022-09-11T22:57:28.964Z,0.93
2022-09-11T23:00:31.786Z,1.10
2022-09-11T23:03:35.591Z,0.60
2022-09-11T23:06:55.433Z,0.70
2022-09-11T23:09:58.000Z,0.85
2022-09-11T23:13:00.356Z,1.08
2022-09-11T23:16:10.938Z,0.90
2022-09-11T23:19:14.883Z,0.65
2022-09-11T23:22:17.310Z,1.02
2022-09-11T23:25:19.771Z,0.82
2022-09-11T23:28:22.203Z,0.80
2022-09-11T23:31:25.809Z,0.90
2022-09-11T23:34:29.700Z,0.90
2022-09-11T23:37:32.211Z,0.60
2022-09-11T23:40:35.171Z,0.73
2022-09-11T23:43:37.533Z,0.70
2022-09-11T23:46:39.960Z,0.80
2022-09-11T23:49:43.768Z,1.20
2022-09-11T23:52:46.362Z,0.70
2022-09-11T23:55:49.192Z,0.40
2022-09-11T23:58:52.034Z,0.45
